createdAt,value
2022-08-26T00:02:07.799Z,99008.44
2022-08-26T00:04:55.091Z,99011.22
2022-08-26T00:07:42.608Z,99012.97
2022-08-26T00:10:31.278Z,99014.97
2022-08-26T00:13:20.250Z,99013.16
2022-08-26T00:16:09.521Z,99014.13
2022-08-26T00:18:58.956Z,99015.94
2022-08-26T00:21:46.599Z,99025.50
2022-08-26T00:24:36.301Z,99019.50
2022-08-26T00:27:23.289Z,99016.13
2022-08-26T00:30:17.196Z,99008.50
2022-08-26T00:33:10.212Z,99012.25
2022-08-26T00:35:58.396Z,99014.03
2022-08-26T00:38:46.405Z,99018.63
2022-08-26T00:41:34.158Z,99017.97
2022-08-26T00:44:21.665Z,99021.56
2022-08-26T00:47:21.886Z,99017.97
2022-08-26T00:50:13.875Z,99018.13
2022-08-26T00:53:06.555Z,99021.91
2022-08-26T00:55:59.166Z,99011.69
2022-08-26T00:58:48.076Z,99012.47
2022-08-26T01:01:36.189Z,99014.47
2022-08-26T01:04:26.147Z,99011.06
2022-08-26T01:07:13.312Z,99012.84
2022-08-26T01:10:01.968Z,99003.41
2022-08-26T01:12:55.443Z,99008.00
2022-08-26T01:15:46.960Z,99014.16
2022-08-26T01:18:35.975Z,99010.78
2022-08-26T01:21:32.768Z,99008.34
2022-08-26T01:24:21.539Z,99004.13
2022-08-26T01:27:12.362Z,99008.69
2022-08-26T01:30:00.463Z,99006.91
2022-08-26T01:32:50.066Z,99012.28
2022-08-26T01:35:38.763Z,99014.88
2022-08-26T01:38:25.883Z,99000.28
2022-08-26T01:41:27.398Z,99004.63
2022-08-26T01:44:19.980Z,99007.41
2022-08-26T01:47:08.654Z,99006.63
2022-08-26T01:49:58.603Z,99002.56
2022-08-26T01:52:50.031Z,99002.56
2022-08-26T01:55:46.433Z,99000.16
2022-08-26T01:58:43.524Z,99001.31
2022-08-26T02:01:32.029Z,99004.06
2022-08-26T02:04:23.878Z,99005.06
2022-08-26T02:07:12.142Z,99003.28
2022-08-26T02:10:00.240Z,99012.03
2022-08-26T02:12:47.282Z,99016.41
2022-08-26T02:15:37.677Z,99013.81
2022-08-26T02:18:26.939Z,99013.03
2022-08-26T02:21:15.049Z,99013.38
2022-08-26T02:24:11.942Z,99012.53
2022-08-26T02:27:01.124Z,99009.16
2022-08-26T02:29:54.886Z,99014.34
2022-08-26T02:32:43.667Z,99010.13
2022-08-26T02:35:33.253Z,99007.53
2022-08-26T02:38:20.369Z,99013.69
2022-08-26T02:41:08.686Z,99017.91
2022-08-26T02:43:57.427Z,99017.13
2022-08-26T02:46:47.225Z,99008.50
2022-08-26T02:49:36.643Z,99013.69
2022-08-26T02:52:23.873Z,99021.47
2022-08-26T02:55:11.651Z,99012.91
2022-08-26T02:57:59.033Z,99014.69
2022-08-26T03:00:53.442Z,99007.88
2022-08-26T03:03:41.964Z,99009.00
2022-08-26T03:06:30.989Z,99004.97
2022-08-26T03:09:19.718Z,99011.94
2022-08-26T03:12:07.744Z,99005.94
2022-08-26T03:14:56.310Z,99005.94
2022-08-26T03:17:43.944Z,99001.75
2022-08-26T03:20:31.546Z,99003.50
2022-08-26T03:23:20.270Z,99004.50
2022-08-26T03:26:09.016Z,99004.50
2022-08-26T03:29:15.720Z,98999.47
2022-08-26T03:32:04.335Z,99003.88
2022-08-26T03:34:51.601Z,99001.28
2022-08-26T03:37:39.462Z,99001.44
2022-08-26T03:40:29.077Z,98999.03
2022-08-26T03:43:18.026Z,98999.03
2022-08-26T03:46:06.693Z,98999.19
2022-08-26T03:48:54.129Z,98995.78
2022-08-26T03:51:42.158Z,99000.97
2022-08-26T03:54:29.596Z,99002.78
2022-08-26T03:57:18.422Z,99005.38
2022-08-26T04:00:10.204Z,99000.34
2022-08-26T04:02:57.393Z,99001.31
2022-08-26T04:05:45.152Z,98999.69
2022-08-26T04:08:33.253Z,99002.28
2022-08-26T04:11:22.823Z,99004.88
2022-08-26T04:14:17.726Z,99004.09
2022-08-26T04:17:07.827Z,99005.84
2022-08-26T04:19:55.481Z,99007.47
2022-08-26T04:22:43.290Z,99008.31
2022-08-26T04:25:30.492Z,99008.31
2022-08-26T04:28:17.965Z,99001.50
2022-08-26T04:31:08.825Z,99000.66
2022-08-26T04:33:56.739Z,99003.25
2022-08-26T04:36:44.642Z,98999.06
2022-08-26T04:39:32.840Z,98998.25
2022-08-26T04:42:23.282Z,99004.44
2022-08-26T04:45:14.154Z,99003.63
2022-08-26T04:48:02.831Z,99000.22
2022-08-26T04:50:52.302Z,99006.38
2022-08-26T04:53:39.746Z,99002.16
2022-08-26T04:56:29.785Z,98994.38
2022-08-26T04:59:18.420Z,99003.16
2022-08-26T05:02:06.915Z,99000.56
2022-08-26T05:04:55.779Z,99007.34
2022-08-26T05:07:43.331Z,99007.34
2022-08-26T05:10:30.565Z,99009.94
2022-08-26T05:13:21.408Z,99008.97
2022-08-26T05:16:12.253Z,99015.16
2022-08-26T05:18:59.446Z,99013.38
2022-08-26T05:21:49.523Z,99009.78
2022-08-26T05:24:37.394Z,99008.97
2022-08-26T05:27:25.627Z,99014.16
2022-08-26T05:30:13.844Z,99014.97
2022-08-26T05:33:01.798Z,99018.56
2022-08-26T05:35:50.407Z,99015.16
2022-08-26T05:38:39.137Z,99018.56
2022-08-26T05:41:34.447Z,99015.16
2022-08-26T05:44:24.546Z,99010.97
2022-08-26T05:47:11.978Z,99018.56
2022-08-26T05:50:00.598Z,99026.19
2022-08-26T05:52:47.794Z,99023.41
2022-08-26T05:55:42.612Z,99026.81
2022-08-26T05:58:30.380Z,99034.28
2022-08-26T06:01:20.410Z,99035.06
2022-08-26T06:04:09.120Z,99035.69
2022-08-26T06:06:56.457Z,99040.72
2022-08-26T06:09:44.146Z,99038.75
2022-08-26T06:12:35.287Z,99030.00
2022-08-26T06:15:22.499Z,99035.00
2022-08-26T06:18:11.913Z,99038.25
2022-08-26T06:20:59.339Z,99030.31
2022-08-26T06:24:05.352Z,99036.13
2022-08-26T06:26:55.818Z,99048.91
2022-08-26T06:29:44.316Z,99047.16
2022-08-26T06:32:31.898Z,99058.19
2022-08-26T06:35:19.425Z,99058.19
2022-08-26T06:38:06.756Z,99059.81
2022-08-26T06:40:59.309Z,99057.03
2022-08-26T06:43:46.980Z,99052.66
2022-08-26T06:46:35.958Z,99056.88
2022-08-26T06:49:26.720Z,99054.09
2022-08-26T06:52:15.133Z,99060.56
2022-08-26T06:55:08.251Z,99062.00
2022-08-26T06:57:57.017Z,99058.44
2022-08-26T07:00:47.407Z,99051.28
2022-08-26T07:03:39.622Z,99057.13
2022-08-26T07:06:29.261Z,99055.78
2022-08-26T07:09:18.138Z,99059.66
2022-08-26T07:12:06.801Z,99055.09
2022-08-26T07:14:54.725Z,99052.16
2022-08-26T07:17:43.139Z,99058.78
2022-08-26T07:20:32.095Z,99059.25
2022-08-26T07:23:19.297Z,99050.16
2022-08-26T07:26:08.206Z,99060.19
2022-08-26T07:28:59.451Z,99055.59
2022-08-26T07:31:46.941Z,99060.28
2022-08-26T07:34:35.969Z,99060.72
2022-08-26T07:37:24.687Z,99067.19
2022-08-26T07:40:12.174Z,99064.09
2022-08-26T07:42:59.617Z,99062.59
2022-08-26T07:45:48.379Z,99054.28
2022-08-26T07:48:37.176Z,99055.38
2022-08-26T07:51:25.007Z,99058.25
2022-08-26T07:54:13.841Z,99058.34
2022-08-26T07:57:01.585Z,99064.00
2022-08-26T07:59:55.985Z,99059.28
2022-08-26T08:02:45.768Z,99052.88
2022-08-26T08:05:34.706Z,99056.78
2022-08-26T08:08:27.749Z,99056.59
2022-08-26T08:11:17.492Z,99052.00
2022-08-26T08:14:08.605Z,99054.41
2022-08-26T08:16:59.216Z,99050.84
2022-08-26T08:19:46.713Z,99053.09
2022-08-26T08:22:33.749Z,99061.34
2022-08-26T08:25:22.388Z,99053.34
2022-08-26T08:28:11.241Z,99048.81
2022-08-26T08:30:58.611Z,99051.03
2022-08-26T08:33:47.114Z,99058.66
2022-08-26T08:36:36.041Z,99046.28
2022-08-26T08:39:24.170Z,99044.13
2022-08-26T08:42:39.798Z,99044.75
2022-08-26T08:45:37.237Z,99048.81
2022-08-26T08:48:28.134Z,99044.06
2022-08-26T08:51:26.513Z,99043.72
2022-08-26T08:54:14.416Z,99052.94
2022-08-26T08:57:07.100Z,99051.75
2022-08-26T09:00:05.673Z,99048.97
2022-08-26T09:02:59.286Z,99049.63
2022-08-26T09:05:51.463Z,99052.03
2022-08-26T09:08:38.576Z,99056.25
2022-08-26T09:11:26.363Z,99050.88
2022-08-26T09:14:14.356Z,99050.69
2022-08-26T09:17:11.115Z,99045.28
2022-08-26T09:20:11.849Z,99038.31
2022-08-26T09:22:59.913Z,99039.75
2022-08-26T09:25:50.519Z,99038.53
2022-08-26T09:28:42.438Z,99042.78
2022-08-26T09:31:31.831Z,99054.63
2022-08-26T09:34:23.769Z,99058.03
2022-08-26T09:37:12.341Z,99066.47
2022-08-26T09:40:27.140Z,99069.72
2022-08-26T09:43:22.031Z,99068.09
2022-08-26T09:46:19.537Z,99058.66
2022-08-26T09:49:29.135Z,99048.44
2022-08-26T09:52:24.717Z,99035.59
2022-08-26T09:55:16.766Z,99036.41
2022-08-26T09:58:04.203Z,99036.41
2022-08-26T10:01:01.404Z,99035.59
2022-08-26T10:03:48.998Z,99024.56
2022-08-26T10:06:42.106Z,99026.19
2022-08-26T10:09:35.552Z,99027.16
2022-08-26T10:12:25.220Z,99033.97
2022-08-26T10:15:15.020Z,99021.94
2022-08-26T10:18:12.446Z,99027.16
2022-08-26T10:21:07.370Z,99017.72
2022-08-26T10:23:59.027Z,99009.13
2022-08-26T10:27:00.382Z,98991.69
2022-08-26T10:29:52.533Z,98999.50
2022-08-26T10:32:44.285Z,99014.13
2022-08-26T10:35:33.143Z,99016.75
2022-08-26T10:38:30.507Z,99019.34
2022-08-26T10:41:24.745Z,99025.38
2022-08-26T10:44:16.679Z,99024.19
2022-08-26T10:47:14.336Z,99014.41
2022-08-26T10:50:03.699Z,99007.56
2022-08-26T10:53:00.339Z,98995.19
2022-08-26T10:56:00.172Z,98983.16
2022-08-26T10:59:04.467Z,98986.75
2022-08-26T11:02:03.935Z,98984.34
2022-08-26T11:04:58.114Z,99000.16
2022-08-26T11:07:47.613Z,98989.72
2022-08-26T11:11:04.184Z,98987.13
2022-08-26T11:14:04.455Z,98981.75
2022-08-26T11:16:56.958Z,98990.00
2022-08-26T11:20:09.005Z,98994.81
2022-08-26T11:23:38.867Z,98983.25
2022-08-26T11:26:56.280Z,98977.28
2022-08-26T11:30:03.062Z,98970.56
2022-08-26T11:32:55.026Z,98971.78
2022-08-26T11:35:52.254Z,98963.41
2022-08-26T11:38:43.820Z,98963.03
2022-08-26T11:41:31.966Z,98961.88
2022-08-26T11:44:22.977Z,98957.91
2022-08-26T11:47:13.909Z,98963.94
2022-08-26T11:50:16.467Z,98955.94
2022-08-26T11:53:06.351Z,98966.38
2022-08-26T11:55:56.606Z,98960.16
2022-08-26T11:58:47.030Z,98963.38
2022-08-26T12:01:37.731Z,98960.41
2022-08-26T12:04:31.864Z,98965.25
2022-08-26T12:07:25.657Z,98945.22
2022-08-26T12:10:31.663Z,98940.78
2022-08-26T12:13:26.377Z,98929.78
2022-08-26T12:16:13.801Z,98916.34
2022-08-26T12:19:01.510Z,98923.63
2022-08-26T12:21:50.754Z,98918.03
2022-08-26T12:24:45.323Z,98913.63
2022-08-26T12:27:34.747Z,98910.41
2022-08-26T12:30:26.417Z,98900.59
2022-08-26T12:33:22.379Z,98910.03
2022-08-26T12:36:11.087Z,98909.03
2022-08-26T12:39:11.283Z,98901.41
2022-08-26T12:42:01.416Z,98905.00
2022-08-26T12:44:53.745Z,98900.78
2022-08-26T12:47:44.466Z,98901.56
2022-08-26T12:50:34.838Z,98900.78
2022-08-26T12:53:26.693Z,98899.59
2022-08-26T12:56:28.023Z,98897.25
2022-08-26T12:59:25.097Z,98894.06
2022-08-26T13:02:33.143Z,98884.66
2022-08-26T13:05:27.663Z,98882.09
2022-08-26T13:08:18.502Z,98876.69
2022-08-26T13:11:12.831Z,98875.31
2022-08-26T13:14:02.386Z,98854.09
2022-08-26T13:16:55.910Z,98853.34
2022-08-26T13:19:43.005Z,98855.19
2022-08-26T13:22:30.459Z,98842.56
2022-08-26T13:25:19.665Z,98846.59
2022-08-26T13:28:07.192Z,98833.34
2022-08-26T13:30:54.860Z,98830.56
2022-08-26T13:33:44.532Z,98830.56
2022-08-26T13:36:32.079Z,98828.13
2022-08-26T13:39:20.088Z,98834.56
2022-08-26T13:42:07.753Z,98822.91
2022-08-26T13:44:58.153Z,98838.94
2022-08-26T13:47:49.874Z,98835.25
2022-08-26T13:50:38.580Z,98829.63
2022-08-26T13:53:25.793Z,98834.63
2022-08-26T13:56:13.157Z,98829.78
2022-08-26T13:59:01.678Z,98832.56
2022-08-26T14:01:49.083Z,98826.97
2022-08-26T14:04:36.695Z,98826.53
2022-08-26T14:07:25.034Z,98827.72
2022-08-26T14:10:13.000Z,98827.13
2022-08-26T14:13:00.619Z,98823.28
2022-08-26T14:15:48.457Z,98839.09
2022-08-26T14:18:41.873Z,98835.88
2022-08-26T14:21:31.562Z,98827.25
2022-08-26T14:24:19.962Z,98825.28
2022-08-26T14:27:07.090Z,98830.09
2022-08-26T14:29:54.937Z,98831.50
2022-08-26T14:32:46.325Z,98831.94
2022-08-26T14:35:33.385Z,98827.53
2022-08-26T14:38:20.847Z,98827.34
2022-08-26T14:41:09.650Z,98824.38
2022-08-26T14:44:01.508Z,98815.53
2022-08-26T14:46:52.535Z,98813.53
2022-08-26T14:49:39.778Z,98811.53
2022-08-26T14:52:27.695Z,98802.94
2022-08-26T14:55:14.249Z,98814.13
2022-08-26T14:58:03.030Z,98819.56
2022-08-26T15:00:50.173Z,98835.38
2022-08-26T15:03:37.294Z,98832.78
2022-08-26T15:06:24.944Z,98840.00
2022-08-26T15:09:12.579Z,98837.34
2022-08-26T15:12:00.025Z,98850.69
2022-08-26T15:14:48.466Z,98843.84
2022-08-26T15:17:36.100Z,98840.56
2022-08-26T15:23:22.987Z,98839.22
2022-08-26T15:26:12.575Z,98840.78
2022-08-26T15:29:04.357Z,98856.19
2022-08-26T15:31:57.193Z,98858.53
2022-08-26T15:34:44.887Z,98860.88
2022-08-26T15:37:32.538Z,98862.25
2022-08-26T15:40:21.997Z,98850.78
2022-08-26T15:43:25.534Z,98848.38
2022-08-26T15:46:13.384Z,98839.34
2022-08-26T15:49:02.378Z,98845.53
2022-08-26T15:51:51.313Z,98850.09
2022-08-26T15:54:39.627Z,98864.91
2022-08-26T15:57:28.400Z,98876.50
2022-08-26T16:00:17.500Z,98890.69
2022-08-26T16:03:06.600Z,98893.66
2022-08-26T16:05:55.414Z,98903.44
2022-08-26T16:08:42.775Z,98901.84
2022-08-26T16:11:31.245Z,98902.63
2022-08-26T16:14:18.656Z,98905.44
2022-08-26T16:17:05.718Z,98908.22
2022-08-26T16:19:53.166Z,98921.22
2022-08-26T16:22:41.763Z,98911.00
2022-08-26T16:25:30.695Z,98918.81
2022-08-26T16:28:26.146Z,98918.00
2022-08-26T16:31:14.099Z,98918.38
2022-08-26T16:34:01.302Z,98921.31
2022-08-26T16:36:48.715Z,98920.47
2022-08-26T16:39:45.125Z,98928.47
2022-08-26T16:42:32.554Z,98928.66
2022-08-26T16:45:20.172Z,98921.03
2022-08-26T16:48:09.920Z,98920.22
2022-08-26T16:50:57.199Z,98923.00
2022-08-26T16:53:45.663Z,98925.19
2022-08-26T16:56:34.594Z,98920.31
2022-08-26T16:59:21.938Z,98918.09
2022-08-26T17:02:11.811Z,98919.06
2022-08-26T17:04:59.133Z,98932.28
2022-08-26T17:07:46.335Z,98943.50
2022-08-26T17:10:34.466Z,98947.88
2022-08-26T17:13:35.563Z,98966.91
2022-08-26T17:16:26.584Z,98955.69
2022-08-26T17:19:14.387Z,98966.09
2022-08-26T17:22:01.880Z,98958.28
2022-08-26T17:24:53.322Z,98961.69
2022-08-26T17:27:40.874Z,98954.88
2022-08-26T17:30:30.906Z,98949.03
2022-08-26T17:33:22.079Z,98949.22
2022-08-26T17:36:12.532Z,98940.63
2022-08-26T17:39:07.787Z,98945.00
2022-08-26T17:41:55.256Z,98952.00
2022-08-26T17:44:42.875Z,98962.41
2022-08-26T17:47:31.580Z,98968.59
2022-08-26T17:50:21.219Z,98968.78
2022-08-26T17:53:12.689Z,98969.34
2022-08-26T17:56:08.980Z,98975.06
2022-08-26T17:59:02.479Z,98978.22
2022-08-26T18:01:54.026Z,98976.75
2022-08-26T18:04:42.908Z,98974.53
2022-08-26T18:07:30.072Z,98978.91
2022-08-26T18:10:20.582Z,98991.09
2022-08-26T18:13:08.093Z,98988.69
2022-08-26T18:15:55.652Z,98992.09
2022-08-26T18:18:43.226Z,98977.31
2022-08-26T18:21:32.046Z,98976.50
2022-08-26T18:24:19.962Z,98968.88
2022-08-26T18:27:07.349Z,98962.69
2022-08-26T18:29:54.664Z,98972.44
2022-08-26T18:32:41.975Z,98976.84
2022-08-26T18:35:30.379Z,98985.63
2022-08-26T18:38:19.270Z,98996.03
2022-08-26T18:41:06.428Z,99001.41
2022-08-26T18:43:54.791Z,98994.41
2022-08-26T18:46:42.735Z,98997.19
2022-08-26T18:49:30.113Z,99004.00
2022-08-26T18:52:17.220Z,99011.81
2022-08-26T18:55:06.989Z,99014.41
2022-08-26T18:57:54.095Z,99024.81
2022-08-26T19:00:41.579Z,99020.59
2022-08-26T19:03:29.385Z,99028.38
2022-08-26T19:06:20.153Z,99030.97
2022-08-26T19:09:11.938Z,99033.59
2022-08-26T19:12:04.582Z,99039.16
2022-08-26T19:14:52.516Z,99040.94
2022-08-26T19:17:39.995Z,99034.31
2022-08-26T19:20:27.452Z,99032.88
2022-08-26T19:23:30.977Z,99043.25
2022-08-26T19:26:20.645Z,99040.84
2022-08-26T19:29:09.510Z,99054.63
2022-08-26T19:31:56.991Z,99069.44
2022-08-26T19:34:44.418Z,99074.63
2022-08-26T19:37:31.704Z,99073.00
2022-08-26T19:40:19.290Z,99074.63
2022-08-26T19:43:07.049Z,99074.63
2022-08-26T19:45:55.945Z,99072.19
2022-08-26T19:48:44.439Z,99077.38
2022-08-26T19:51:35.235Z,99079.16
2022-08-26T19:54:23.519Z,99072.50
2022-08-26T19:57:10.753Z,99070.09
2022-08-26T19:59:58.578Z,99074.66
2022-08-26T20:02:47.497Z,99066.88
2022-08-26T20:05:34.783Z,99069.47
2022-08-26T20:08:22.893Z,99079.88
2022-08-26T20:11:13.527Z,99076.25
2022-08-26T20:14:01.019Z,99081.47
2022-08-26T20:16:49.357Z,99090.88
2022-08-26T20:19:55.150Z,99085.69
2022-08-26T20:22:42.336Z,99094.44
2022-08-26T20:25:29.616Z,99093.47
2022-08-26T20:28:16.931Z,99091.84
2022-08-26T20:31:05.589Z,99085.69
2022-08-26T20:33:53.591Z,99102.25
2022-08-26T20:36:43.534Z,99102.25
2022-08-26T20:39:30.606Z,99098.84
2022-08-26T20:42:20.064Z,99106.84
2022-08-26T20:45:09.556Z,99113.81
2022-08-26T20:47:56.990Z,99105.22
2022-08-26T20:50:44.324Z,99109.59
2022-08-26T20:53:33.362Z,99111.38
2022-08-26T20:56:24.348Z,99109.78
2022-08-26T20:59:11.870Z,99108.97
2022-08-26T21:01:58.921Z,99099.56
2022-08-26T21:04:46.317Z,99098.75
2022-08-26T21:07:34.095Z,99092.75
2022-08-26T21:10:22.818Z,99092.94
2022-08-26T21:13:11.118Z,99093.06
2022-08-26T21:15:59.609Z,99097.47
2022-08-26T21:18:47.257Z,99090.66
2022-08-26T21:21:34.931Z,99097.00
2022-08-26T21:24:23.008Z,99087.78
2022-08-26T21:27:12.017Z,99087.78
2022-08-26T21:29:59.503Z,99086.97
2022-08-26T21:32:46.734Z,99087.94
2022-08-26T21:35:34.736Z,99096.56
2022-08-26T21:38:22.437Z,99106.13
2022-08-26T21:41:14.111Z,99101.94
2022-08-26T21:44:02.737Z,99103.69
2022-08-26T21:46:50.757Z,99109.72
2022-08-26T21:49:38.184Z,99111.50
2022-08-26T21:52:26.529Z,99114.09
2022-08-26T21:55:14.279Z,99114.28
2022-08-26T21:58:02.351Z,99122.91
2022-08-26T22:00:53.272Z,99127.25
2022-08-26T22:03:47.581Z,99124.84
2022-08-26T22:06:41.916Z,99127.44
2022-08-26T22:09:32.480Z,99139.47
2022-08-26T22:12:19.821Z,99144.66
2022-08-26T22:15:09.288Z,99142.06
2022-08-26T22:17:57.755Z,99132.81
2022-08-26T22:20:45.779Z,99134.25
2022-08-26T22:23:33.930Z,99126.63
2022-08-26T22:26:25.692Z,99124.03
2022-08-26T22:29:14.591Z,99127.25
2022-08-26T22:32:02.600Z,99136.84
2022-08-26T22:34:51.593Z,99131.00
2022-08-26T22:37:38.775Z,99129.38
2022-08-26T22:40:25.892Z,99131.97
2022-08-26T22:43:14.383Z,99132.97
2022-08-26T22:46:01.886Z,99135.59
2022-08-26T22:48:53.666Z,99133.16
2022-08-26T22:51:42.736Z,99136.72
2022-08-26T22:54:29.931Z,99135.91
2022-08-26T22:57:17.218Z,99138.50
2022-08-26T23:00:06.042Z,99129.13
2022-08-26T23:02:54.531Z,99142.09
2022-08-26T23:05:42.792Z,99143.06
2022-08-26T23:08:31.401Z,99137.09
2022-08-26T23:11:19.324Z,99138.06
2022-08-26T23:14:06.815Z,99139.81
2022-08-26T23:16:54.403Z,99138.22
2022-08-26T23:19:42.145Z,99147.78
2022-08-26T23:22:31.410Z,99147.00
2022-08-26T23:25:24.453Z,99148.78
2022-08-26T23:28:12.813Z,99145.38
2022-08-26T23:31:00.313Z,99148.16
2022-08-26T23:34:05.590Z,99141.31
2022-08-26T23:36:52.718Z,99144.09
2022-08-26T23:39:41.846Z,99138.28
2022-08-26T23:42:30.778Z,99133.22
2022-08-26T23:45:18.555Z,99130.63
2022-08-26T23:48:07.982Z,99134.22
2022-08-26T23:51:12.726Z,99130.81
2022-08-26T23:54:00.108Z,99134.41
2022-08-26T23:56:47.518Z,99129.22
2022-08-26T23:59:37.978Z,99139.59
